Time;durP1;ratioP1;P1;durP2;ratioP2;P2;SDS_P1;SDS_P2;PMS_P1;PMS_P2;Temp;Humidity;BMP_temperature;BMP_pressure;BME280_temperature;BME280_humidity;BME280_pressure;Samples;Min_cycle;Max_cycle;Signal;HPM_P1;HPM_P2
2022/01/10 00:02:09;;;;;;;95.53;51.07;;;;;;;-5.18;91.38;99204.75;1685346;84;20950;-69
2022/01/10 00:04:35;;;;;;;74.10;38.10;;;;;;;-5.23;91.32;99205.97;1682000;84;21041;-69
2022/01/10 00:07:24;;;;;;;96.55;51.37;;;;;;;-5.23;91.51;99205.97;1688778;84;20974;-70
2022/01/10 00:09:50;;;;;;;87.17;50.40;;;;;;;-5.23;91.48;99214.88;1646281;85;21144;-67
2022/01/10 00:12:17;;;;;;;93.50;52.25;;;;;;;-5.28;91.43;99217.80;1634882;85;21016;-67
2022/01/10 00:14:44;;;;;;;85.45;48.25;;;;;;;-5.29;91.33;99228.83;1612067;87;21148;-66
2022/01/10 00:17:10;;;;;;;90.87;49.40;;;;;;;-5.34;91.19;99227.94;1641151;85;20940;-67
2022/01/10 00:19:37;;;;;;;84.13;47.13;;;;;;;-5.39;91.13;99230.85;1641993;85;21000;-66
2022/01/10 00:22:06;;;;;;;90.32;52.13;;;;;;;-5.44;91.16;99228.26;1647453;85;21515;-66
2022/01/10 00:24:32;;;;;;;87.55;52.62;;;;;;;-5.50;91.08;99233.72;1591828;88;21067;-68
2022/01/10 00:26:59;;;;;;;94.70;51.57;;;;;;;-5.52;91.26;99238.78;1644673;85;20989;-69
2022/01/10 00:29:26;;;;;;;83.30;47.17;;;;;;;-5.52;91.26;99237.94;1637837;85;21312;-69
2022/01/10 00:31:53;;;;;;;93.17;50.40;;;;;;;-5.53;91.23;99239.63;1617269;87;21621;-68
2022/01/10 00:34:20;;;;;;;91.85;52.88;;;;;;;-5.53;91.21;99238.78;1615867;87;21613;-69
2022/01/10 00:36:46;;;;;;;92.77;51.40;;;;;;;-5.57;91.12;99243.39;1611781;87;21092;-68
2022/01/10 00:39:13;;;;;;;90.13;52.17;;;;;;;-5.63;91.06;99251.42;1617034;87;21101;-68
2022/01/10 00:41:44;;;;;;;86.87;51.20;;;;;;;-5.64;91.09;99262.41;1634212;86;21814;-68
2022/01/10 00:44:12;;;;;;;84.55;50.38;;;;;;;-5.60;91.20;99267.52;1600351;87;21003;-68
2022/01/10 00:46:38;;;;;;;;;;;;;;;-5.57;91.41;99273.91;1614346;85;21468;-68
2022/01/10 00:49:06;;;;;;;71.62;41.37;;;;;;;-5.55;91.44;99288.78;1635192;85;20167;-68
2022/01/10 00:51:33;;;;;;;79.05;46.55;;;;;;;-5.54;91.51;99277.79;1617451;86;21080;-68
2022/01/10 00:54:00;;;;;;;86.08;49.18;;;;;;;-5.55;91.50;99281.16;1635361;86;21085;-68
2022/01/10 00:56:27;;;;;;;92.25;50.15;;;;;;;-5.59;91.25;99287.06;1634939;85;20984;-68
2022/01/10 00:58:53;;;;;;;88.90;50.40;;;;;;;-5.65;91.19;99289.12;1635426;86;21161;-67
2022/01/10 01:01:20;;;;;;;96.40;53.57;;;;;;;-5.68;91.16;99286.12;1633219;85;21023;-68
2022/01/10 01:03:47;;;;;;;80.22;45.85;;;;;;;-5.67;91.31;99298.41;1616269;86;21003;-68
2022/01/10 01:06:15;;;;;;;79.90;46.45;;;;;;;-5.63;91.59;99306.50;1638780;85;21037;-68
2022/01/10 01:08:43;;;;;;;71.28;42.55;;;;;;;-5.56;91.71;99308.28;1642012;85;21072;-68
2022/01/10 01:11:58;;;;;;;79.12;47.38;;;;;;;-5.52;91.83;99306.62;1626935;86;21111;-68
2022/01/10 01:14:04;;;;;;;76.72;46.50;;;;;;;-5.46;91.76;99313.03;1618932;86;26749;-68
2022/01/10 01:19:53;;;;;;;81.92;48.30;;;;;;;-5.39;91.68;99331.36;1623793;86;21169;-69
2022/01/10 01:24:26;;;;;;;67.47;40.25;;;;;;;-5.40;91.45;99343.23;1627844;86;21134;-68
2022/01/10 01:26:54;;;;;;;72.80;44.45;;;;;;;-5.38;91.55;99343.23;1626023;86;21045;-69
2022/01/10 01:29:25;;;;;;;80.05;46.98;;;;;;;-5.34;91.58;99347.53;1624579;86;21064;-68
2022/01/10 01:31:53;;;;;;;73.37;44.83;;;;;;;-5.33;91.52;99349.23;1624410;86;21567;-69
2022/01/10 01:34:22;;;;;;;74.62;46.35;;;;;;;-5.31;91.49;99352.66;1617899;86;20997;-69
2022/01/10 01:36:53;;;;;;;70.78;42.00;;;;;;;-5.25;91.56;99359.50;1630131;86;21188;-69
2022/01/10 01:39:23;;;;;;;67.20;40.98;;;;;;;-5.23;91.47;99363.77;1632546;86;21588;-69
2022/01/10 01:41:56;;;;;;;72.30;44.27;;;;;;;-5.21;91.46;99368.86;1615963;86;21093;-69
2022/01/10 01:44:23;;;;;;;69.17;41.68;;;;;;;-5.23;91.25;99373.10;1622919;87;21135;-69
2022/01/10 01:46:50;;;;;;;75.72;47.38;;;;;;;-5.31;90.96;99375.56;1627473;87;21595;-69
2022/01/10 01:49:17;;;;;;;67.67;42.10;;;;;;;-5.40;90.74;99369.11;1622658;86;21089;-69
2022/01/10 01:51:43;;;;;;;74.30;43.53;;;;;;;-5.52;90.54;99375.30;1618103;86;21077;-69
2022/01/10 01:54:10;;;;;;;72.25;43.13;;;;;;;-5.60;90.64;99379.45;1630483;86;20984;-68
2022/01/10 01:56:38;;;;;;;69.53;43.98;;;;;;;-5.68;90.73;99384.46;1641271;86;21120;-68
2022/01/10 01:59:09;;;;;;;68.00;41.45;;;;;;;-5.74;90.82;99398.34;1627193;86;21046;-69
2022/01/10 02:01:36;;;;;;;77.60;47.50;;;;;;;-5.78;90.97;99400.00;1622791;86;21577;-69
2022/01/10 02:04:03;;;;;;;70.65;43.40;;;;;;;-5.80;91.06;99420.73;1612651;86;21639;-69
2022/01/10 02:06:31;;;;;;;77.12;44.35;;;;;;;-5.82;91.12;99422.42;1633867;86;21086;-69
2022/01/10 02:08:57;;;;;;;72.97;42.73;;;;;;;-5.82;91.23;99421.55;1636854;86;21061;-69
2022/01/10 02:11:24;;;;;;;69.10;43.78;;;;;;;-5.84;91.17;99426.62;1667082;84;21148;-69
2022/01/10 02:13:51;;;;;;;75.72;44.08;;;;;;;-5.90;91.00;99421.46;1677236;84;21788;-69
2022/01/10 02:16:22;;;;;;;77.50;44.10;;;;;;;-5.97;91.01;99419.69;1663331;84;21006;-70
2022/01/10 02:18:46;;;;;;;72.30;45.30;;;;;;;-5.98;91.14;99423.07;1664777;84;21594;-69
2022/01/10 02:21:14;;;;;;;79.37;47.75;;;;;;;-5.99;91.16;99431.12;1665738;84;20990;-69
2022/01/10 02:23:42;;;;;;;73.00;44.45;;;;;;;-5.99;91.23;99430.23;1668141;84;21027;-66
2022/01/10 02:26:09;;;;;;;74.40;45.63;;;;;;;-5.96;91.39;99431.58;1670832;84;21077;-68
2022/01/10 02:28:36;;;;;;;71.67;42.40;;;;;;;-5.92;91.46;99438.38;1665890;84;21024;-66
2022/01/10 02:31:34;;;;;;;74.82;45.48;;;;;;;-5.88;91.54;99442.66;1666697;84;21455;-66
2022/01/10 02:33:57;;;;;;;75.55;44.67;;;;;;;-5.84;91.52;99446.97;1601803;88;20987;-69
2022/01/10 02:36:27;;;;;;;76.95;45.88;;;;;;;-5.83;91.51;99441.03;1601381;89;21120;-68
2022/01/10 02:39:09;;;;;;;75.10;46.40;;;;;;;-5.79;91.55;99450.44;1607763;87;21366;-69
2022/01/10 02:41:43;;;;;;;69.45;41.05;;;;;;;-5.74;91.58;99452.63;1604336;88;21053;-69
2022/01/10 02:44:14;;;;;;;70.97;40.90;;;;;;;-5.74;91.54;99458.98;1602649;88;21009;-68
2022/01/10 02:46:43;;;;;;;69.40;39.42;;;;;;;-5.76;91.34;99465.73;1604449;87;21112;-68
2022/01/10 02:49:14;;;;;;;68.22;41.75;;;;;;;-5.85;91.12;99474.09;1604993;88;21055;-68
2022/01/10 02:51:41;;;;;;;78.92;44.38;;;;;;;-5.94;90.95;99478.20;1605863;88;21128;-69
2022/01/10 02:54:08;;;;;;;69.32;41.53;;;;;;;-5.99;91.05;99488.31;1605131;87;21065;-69
2022/01/10 02:56:57;;;;;;;68.33;39.65;;;;;;;-5.98;91.27;99486.62;1604085;87;21029;-69
2022/01/10 02:59:25;;;;;;;67.72;40.40;;;;;;;-5.94;91.42;99495.99;1618403;87;21045;-68
2022/01/10 03:01:52;;;;;;;68.67;40.43;;;;;;;-5.93;91.46;99496.45;1622282;88;21048;-69
2022/01/10 03:04:19;;;;;;;71.05;42.70;;;;;;;-5.96;91.40;99501.07;1617077;88;21101;-69
2022/01/10 03:06:59;;;;;;;76.55;43.00;;;;;;;-5.98;91.37;99502.73;1620557;88;21027;-69
2022/01/10 03:09:52;;;;;;;69.45;42.73;;;;;;;-5.92;91.41;99514.64;1832862;76;23398;-67
2022/01/10 03:12:19;;;;;;;66.45;39.23;;;;;;;-5.98;91.37;99518.41;1811524;78;21599;-67
2022/01/10 03:14:46;;;;;;;;;;;;;;;-5.98;91.36;99522.22;1816660;77;21615;-67
2022/01/10 03:17:13;;;;;;;73.20;41.23;;;;;;;-6.01;91.35;99528.52;1816987;76;20124;-67
2022/01/10 03:19:41;;;;;;;70.35;40.73;;;;;;;-6.03;91.36;99530.17;1812424;78;21020;-67
2022/01/10 03:22:09;;;;;;;65.72;39.75;;;;;;;-6.04;91.38;99534.83;1801569;78;21026;-67
2022/01/10 03:24:36;;;;;;;61.15;37.70;;;;;;;-6.07;91.32;99539.87;1814186;78;21002;-67
2022/01/10 03:27:03;;;;;;;71.20;40.55;;;;;;;-6.14;91.32;99549.91;1812163;78;22232;-67
2022/01/10 03:29:31;;;;;;;64.65;40.15;;;;;;;-6.19;91.31;99552.81;1814544;78;21041;-67
2022/01/10 03:31:57;;;;;;;;;;;;;;;-6.20;91.19;99563.78;1817402;78;20964;-67
2022/01/10 03:34:24;;;;;;;66.10;40.05;;;;;;;-6.25;91.12;99561.57;1809094;78;20196;-67
2022/01/10 03:36:51;;;;;;;71.40;42.23;;;;;;;-6.34;91.05;99569.04;1776943;79;21010;-66
2022/01/10 03:39:19;;;;;;;65.57;39.65;;;;;;;-6.41;90.96;99575.70;1771734;79;21181;-66
2022/01/10 03:41:46;;;;;;;67.40;40.70;;;;;;;-6.45;90.80;99575.61;1751906;81;20958;-68
2022/01/10 03:44:13;;;;;;;74.57;42.47;;;;;;;-6.51;90.80;99581.43;1785861;79;21059;-68
2022/01/10 03:46:40;;;;;;;73.12;43.87;;;;;;;-6.54;90.97;99589.84;1780522;79;21003;-68
2022/01/10 03:49:07;;;;;;;72.45;43.17;;;;;;;-6.53;91.12;99583.92;1785607;79;26422;-68
2022/01/10 03:51:34;;;;;;;70.57;43.65;;;;;;;-6.49;91.33;99591.63;1778466;79;21585;-68
2022/01/10 03:54:01;;;;;;;65.75;38.55;;;;;;;-6.44;91.52;99602.71;1780722;79;21032;-68
2022/01/10 03:59:18;;;;;;;68.10;37.98;;;;;;;-6.48;91.17;99606.03;1694822;82;21827;-68
2022/01/10 04:01:45;;;;;;;68.12;43.00;;;;;;;-6.58;90.96;99613.48;1747913;81;21080;-68
2022/01/10 04:04:12;;;;;;;67.15;41.42;;;;;;;-6.50;91.67;99635.63;1749560;81;21224;-68
2022/01/10 04:06:38;;;;;;;66.02;40.40;;;;;;;-6.50;91.67;99635.63;1746633;81;21008;-68
2022/01/10 04:09:08;;;;;;;69.73;41.50;;;;;;;-6.44;91.62;99633.20;1747705;80;20914;-68
2022/01/10 04:11:35;;;;;;;63.28;40.70;;;;;;;-6.37;91.75;99635.89;1754369;81;21028;-68
2022/01/10 04:14:02;;;;;;;71.47;41.10;;;;;;;-6.25;91.95;99642.89;1735218;80;22323;-68
2022/01/10 04:16:29;;;;;;;56.63;36.25;;;;;;;-6.12;92.06;99649.07;1744914;80;21055;-68
2022/01/10 04:18:55;;;;;;;65.67;39.80;;;;;;;-6.06;91.94;99645.78;1756571;80;21000;-68
2022/01/10 04:21:22;;;;;;;56.93;33.70;;;;;;;-6.03;91.86;99661.09;1734780;81;21106;-68
2022/01/10 04:23:49;;;;;;;66.37;37.17;;;;;;;-6.03;91.78;99663.63;1747210;80;21059;-68
2022/01/10 04:26:16;;;;;;;59.85;36.03;;;;;;;-6.05;91.63;99661.47;1720556;80;21548;-68
2022/01/10 04:28:43;;;;;;;64.30;38.30;;;;;;;-6.10;91.57;99658.44;1719671;82;21992;-68
2022/01/10 04:31:11;;;;;;;60.17;36.83;;;;;;;-6.17;91.31;99656.59;1744713;81;20969;-68
2022/01/10 04:33:39;;;;;;;61.30;38.92;;;;;;;-6.25;91.16;99670.84;1728135;81;20930;-68
2022/01/10 04:36:05;;;;;;;68.22;39.35;;;;;;;-6.27;91.34;99672.52;1745601;81;23035;-68
2022/01/10 04:38:32;;;;;;;72.62;42.70;;;;;;;-6.25;91.58;99673.37;1734030;81;21043;-68
2022/01/10 04:40:59;;;;;;;66.67;38.90;;;;;;;-6.17;91.78;99676.93;1744028;80;21234;-68
2022/01/10 04:43:26;;;;;;;68.93;41.73;;;;;;;-6.10;91.89;99683.86;1744818;80;20976;-68
2022/01/10 04:45:53;;;;;;;70.50;44.90;;;;;;;-6.06;91.78;99694.08;1731061;80;21266;-68
2022/01/10 04:48:19;;;;;;;91.40;62.97;;;;;;;-6.06;91.75;99700.44;1737019;81;21092;-68
2022/01/10 04:51:12;;;;;;;63.10;40.77;;;;;;;-6.06;91.75;99709.33;1743280;80;21067;-68
2022/01/10 04:53:41;;;;;;;65.67;38.60;;;;;;;-6.05;91.85;99704.68;1662041;84;21238;-69
2022/01/10 04:56:08;;;;;;;63.60;37.45;;;;;;;-6.03;91.83;99706.84;1658643;84;21045;-69
2022/01/10 04:58:35;;;;;;;56.95;35.68;;;;;;;-6.01;91.90;99715.37;1665701;84;21040;-68
2022/01/10 05:01:03;;;;;;;88.97;47.80;;;;;;;-6.02;91.83;99713.63;1659465;84;21564;-69
2022/01/10 05:03:31;;;;;;;70.17;39.23;;;;;;;-6.01;91.86;99723.84;1668071;84;21564;-69
2022/01/10 05:05:58;;;;;;;73.67;43.23;;;;;;;-6.02;91.76;99728.89;1659446;84;21070;-69
2022/01/10 05:08:25;;;;;;;71.92;41.58;;;;;;;-6.05;91.69;99739.00;1654356;84;21679;-69
2022/01/10 05:10:52;;;;;;;66.40;37.95;;;;;;;-6.10;91.66;99734.70;1655196;84;21000;-69
2022/01/10 05:13:22;;;;;;;60.95;37.58;;;;;;;-6.10;91.70;99744.86;1663187;84;28223;-69
2022/01/10 05:15:50;;;;;;;73.20;44.55;;;;;;;-6.14;91.66;99745.61;1667076;84;21048;-69
2022/01/10 05:18:19;;;;;;;65.05;39.40;;;;;;;-6.09;91.79;99759.27;1678157;83;21092;-69
2022/01/10 05:20:47;;;;;;;58.08;35.95;;;;;;;-5.98;91.91;99768.81;1660143;84;21169;-68
2022/01/10 05:23:15;;;;;;;60.40;36.10;;;;;;;-5.96;91.96;99773.52;1665803;84;21601;-69
2022/01/10 05:25:42;;;;;;;67.78;36.90;;;;;;;-5.85;92.14;99770.75;1662488;84;21004;-69
2022/01/10 05:28:12;;;;;;;65.20;38.70;;;;;;;-5.76;92.15;99782.78;1658075;84;21155;-68
2022/01/10 05:30:40;;;;;;;74.35;42.40;;;;;;;-5.67;92.18;99783.80;1674221;84;21903;-69
2022/01/10 05:33:08;;;;;;;74.72;41.95;;;;;;;-5.59;92.10;99785.64;1667927;84;21053;-68
2022/01/10 05:35:36;;;;;;;70.15;42.93;;;;;;;-5.56;92.08;99796.72;1660361;84;21024;-69
2022/01/10 05:38:06;;;;;;;59.40;37.95;;;;;;;-5.57;91.85;99792.86;1671674;84;21080;-68
2022/01/10 05:40:34;;;;;;;67.92;39.08;;;;;;;-5.69;91.32;99798.16;1667467;84;21068;-68
2022/01/10 05:43:00;;;;;;;73.12;44.58;;;;;;;-5.80;91.17;99817.44;1664669;84;21878;-68
2022/01/10 05:45:27;;;;;;;68.07;44.48;;;;;;;-5.85;91.35;99816.52;1669417;84;21063;-68
2022/01/10 05:47:59;;;;;;;69.12;43.87;;;;;;;-5.85;91.52;99819.06;1660096;84;21043;-68
2022/01/10 05:50:34;;;;;;;69.80;42.65;;;;;;;-5.85;91.65;99825.00;1669831;84;21033;-69
2022/01/10 05:53:01;;;;;;;72.87;43.45;;;;;;;-5.82;91.77;99819.13;1675670;84;21203;-68
2022/01/10 05:55:28;;;;;;;66.25;39.98;;;;;;;-5.82;91.72;99824.20;1679789;83;21199;-69
2022/01/10 05:57:55;;;;;;;68.97;42.35;;;;;;;-5.89;91.39;99832.52;1679928;83;21014;-71
2022/01/10 06:00:23;;;;;;;62.08;40.33;;;;;;;-5.96;91.28;99840.90;1680432;84;20961;-70
2022/01/10 06:02:50;;;;;;;65.22;42.35;;;;;;;-6.03;91.30;99842.43;1677872;84;21615;-69
2022/01/10 06:05:24;;;;;;;;;;;;;;;-6.12;91.17;99848.18;1682830;84;21064;-69
2022/01/10 06:07:46;;;;;;;87.65;56.05;;;;;;;-6.18;91.24;99850.59;1676299;84;21107;-70
2022/01/10 06:10:13;;;;;;;81.45;51.73;;;;;;;-6.18;91.57;99858.22;1678138;84;21621;-69
2022/01/10 06:12:40;;;;;;;88.60;48.58;;;;;;;-6.15;91.84;99858.28;1677985;84;21099;-70
2022/01/10 06:15:07;;;;;;;95.25;59.63;;;;;;;-6.15;91.86;99871.41;1678161;84;21016;-69
2022/01/10 06:17:34;;;;;;;78.33;50.58;;;;;;;-6.14;91.89;99876.51;1679334;83;21091;-70
2022/01/10 06:20:02;;;;;;;64.97;41.02;;;;;;;-6.13;91.91;99889.69;1681639;84;21550;-69
2022/01/10 06:22:28;;;;;;;;;;;;;;;-6.14;91.91;99884.13;1659337;85;21119;-69
2022/01/10 06:24:56;;;;;;;70.92;42.65;;;;;;;-6.12;91.90;99899.02;1680612;84;20138;-69
2022/01/10 06:27:22;;;;;;;65.40;39.08;;;;;;;-6.09;91.98;99910.52;1680808;84;21048;-69
2022/01/10 06:29:49;;;;;;;64.75;38.92;;;;;;;-6.07;91.96;99913.53;1681666;84;21014;-70
2022/01/10 06:32:16;;;;;;;60.75;37.80;;;;;;;-6.04;92.07;99918.69;1711487;83;21503;-69
2022/01/10 06:34:42;;;;;;;69.17;41.40;;;;;;;-5.93;92.37;99922.33;1706279;83;20945;-71
2022/01/10 06:37:10;;;;;;;65.32;39.35;;;;;;;-5.82;92.51;99922.11;1709129;82;21024;-71
2022/01/10 06:39:36;;;;;;;101.23;52.87;;;;;;;-5.73;92.46;99931.20;1707703;83;21496;-69
2022/01/10 06:42:04;;;;;;;109.77;55.23;;;;;;;-5.67;92.41;99938.96;1712973;82;21028;-69
2022/01/10 06:44:31;;;;;;;111.75;59.27;;;;;;;-5.63;92.35;99940.77;1679493;84;21337;-69
2022/01/10 06:46:58;;;;;;;106.55;57.53;;;;;;;-5.59;92.28;99943.37;1706117;83;21386;-69
2022/01/10 06:51:52;;;;;;;88.33;51.60;;;;;;;-5.46;92.33;99951.68;1866276;75;22737;-70
2022/01/10 06:54:18;;;;;;;84.58;49.20;;;;;;;-5.47;92.31;99961.42;1837812;77;22270;-70
2022/01/10 06:56:45;;;;;;;88.65;52.17;;;;;;;-5.46;92.16;99961.86;1840592;77;21106;-69
2022/01/10 06:59:16;;;;;;;97.13;52.47;;;;;;;-5.49;92.01;99963.07;1838086;77;20969;-71
2022/01/10 07:01:40;;;;;;;94.58;55.98;;;;;;;-5.53;91.85;99971.48;1834119;77;21039;-71
2022/01/10 07:04:07;;;;;;;100.75;56.08;;;;;;;-5.59;91.75;99976.02;1843183;77;21009;-70
2022/01/10 07:06:34;;;;;;;96.30;57.40;;;;;;;-5.62;91.78;99984.86;1841015;77;20982;-70
2022/01/10 07:09:01;;;;;;;81.78;48.83;;;;;;;-5.67;91.70;99994.07;1856412;77;21070;-72
2022/01/10 07:11:28;;;;;;;79.07;45.45;;;;;;;-5.71;91.68;100000.78;1849891;77;21025;-71
2022/01/10 07:13:55;;;;;;;86.12;48.85;;;;;;;-5.76;91.67;100002.36;1838100;77;20898;-71
2022/01/10 07:16:31;;;;;;;81.57;51.00;;;;;;;-5.79;91.75;100004.83;1840324;77;20965;-72
2022/01/10 07:18:57;;;;;;;76.97;46.28;;;;;;;-5.83;91.65;100006.84;1836588;77;20990;-73
2022/01/10 07:21:24;;;;;;;87.62;51.18;;;;;;;-5.89;91.50;100006.28;1827938;77;21046;-71
2022/01/10 07:23:51;;;;;;;87.07;49.57;;;;;;;-5.91;91.62;100017.24;1829800;77;21556;-72
2022/01/10 07:26:18;;;;;;;100.05;55.43;;;;;;;-6.01;91.73;100002.64;1830293;77;21621;-72
2022/01/10 07:28:45;;;;;;;78.87;48.00;;;;;;;-5.90;91.83;100026.61;1831215;77;21071;-71
2022/01/10 07:31:12;;;;;;;92.67;53.30;;;;;;;-5.87;91.97;100031.77;1831702;77;21544;-72
2022/01/10 07:33:39;;;;;;;97.80;53.38;;;;;;;-5.83;92.03;100033.55;1824562;77;21008;-72
2022/01/10 07:36:06;;;;;;;82.25;51.60;;;;;;;-5.82;91.82;100032.73;1834782;77;21051;-72
2022/01/10 07:38:35;;;;;;;97.33;58.45;;;;;;;-5.78;91.88;100038.75;1854988;76;20890;-71
2022/01/10 07:41:06;;;;;;;149.32;93.97;;;;;;;-5.77;91.88;100043.89;1846965;77;20965;-70
2022/01/10 07:43:35;;;;;;;144.22;95.80;;;;;;;-5.72;92.01;100041.43;1856364;77;20918;-70
2022/01/10 07:46:05;;;;;;;116.50;71.50;;;;;;;-5.65;92.11;100049.25;1851549;77;21076;-69
2022/01/10 07:48:35;;;;;;;110.60;64.37;;;;;;;-5.56;92.18;100055.38;1847763;77;20984;-70
2022/01/10 07:51:03;;;;;;;109.17;60.12;;;;;;;-5.52;92.12;100058.42;1830693;76;21043;-70
2022/01/10 07:53:30;;;;;;;96.37;55.73;;;;;;;-5.42;92.18;100059.09;1800200;78;20979;-70
2022/01/10 07:55:57;;;;;;;102.90;59.18;;;;;;;-5.38;92.01;100058.73;1802143;78;21064;-70
2022/01/10 07:58:29;;;;;;;92.02;55.92;;;;;;;-5.33;92.00;100080.92;1816421;78;21072;-70
2022/01/10 08:00:57;;;;;;;89.00;53.28;;;;;;;-5.25;92.21;100081.95;1825530;78;20966;-70
2022/01/10 08:03:24;;;;;;;99.03;59.73;;;;;;;-5.15;92.26;100079.21;1813942;78;21087;-70
2022/01/10 08:05:51;;;;;;;104.38;62.67;;;;;;;-5.11;92.02;100087.77;1808870;78;23725;-68
2022/01/10 08:08:18;;;;;;;101.60;59.33;;;;;;;-5.05;92.24;100078.56;1818243;78;20942;-71
2022/01/10 08:10:46;;;;;;;85.00;51.70;;;;;;;-5.05;92.24;100078.56;1817359;78;21901;-69
2022/01/10 08:13:14;;;;;;;92.80;53.45;;;;;;;-4.85;92.34;100101.05;1775901;78;20937;-70
2022/01/10 08:15:45;;;;;;;93.65;57.25;;;;;;;-4.75;92.41;100111.47;1821122;78;20941;-70
2022/01/10 08:18:15;;;;;;;90.67;53.80;;;;;;;-4.66;92.44;100108.66;1819961;78;20903;-75
2022/01/10 08:20:42;;;;;;;85.35;49.73;;;;;;;-4.56;92.45;100122.05;1817683;78;21001;-70
2022/01/10 08:23:09;;;;;;;78.15;50.15;;;;;;;-4.48;92.46;100125.61;1818029;78;21268;-72
2022/01/10 08:25:36;;;;;;;95.12;54.60;;;;;;;-4.38;92.47;100135.13;1822537;78;20934;-71
2022/01/10 08:28:06;;;;;;;69.30;44.35;;;;;;;-4.22;92.71;100144.38;1808762;78;21037;-72
2022/01/10 08:30:37;;;;;;;61.60;41.65;;;;;;;-4.11;92.63;100139.06;1808299;78;21013;-69
2022/01/10 08:33:06;;;;;;;63.80;39.03;;;;;;;-4.01;92.66;100146.03;1809113;78;21027;-69
2022/01/10 08:35:33;;;;;;;65.32;43.68;;;;;;;-3.89;92.74;100148.82;1800727;78;21278;-69
2022/01/10 08:38:05;;;;;;;55.00;35.78;;;;;;;-3.77;92.77;100151.14;1763719;80;21159;-70
2022/01/10 08:40:34;;;;;;;50.50;33.58;;;;;;;-3.67;92.71;100154.27;1744776;80;21774;-69
2022/01/10 08:43:06;;;;;;;51.73;33.60;;;;;;;-3.62;92.60;100156.08;1738368;81;20997;-69
2022/01/10 08:45:33;;;;;;;49.05;31.25;;;;;;;-3.54;92.48;100161.73;1747185;81;20914;-70
2022/01/10 08:48:07;;;;;;;48.85;29.75;;;;;;;-3.47;92.42;100167.41;1751113;80;21620;-70
2022/01/10 08:50:44;;;;;;;46.23;29.05;;;;;;;-3.38;92.63;100174.78;1738369;79;20987;-70
2022/01/10 08:53:11;;;;;;;44.03;28.35;;;;;;;-3.15;92.37;100185.36;1777732;78;21061;-70
2022/01/10 08:55:40;;;;;;;48.52;29.07;;;;;;;-3.01;92.33;100180.46;1776812;79;21588;-70
2022/01/10 08:58:07;;;;;;;45.03;26.85;;;;;;;-2.93;92.16;100191.66;1772459;78;20911;-70
2022/01/10 09:00:36;;;;;;;49.10;28.83;;;;;;;-2.81;92.11;100200.34;1763676;78;21082;-70
2022/01/10 09:03:11;;;;;;;41.70;24.80;;;;;;;-2.71;92.10;100202.20;1765016;79;21080;-70
2022/01/10 09:05:54;;;;;;;44.75;26.45;;;;;;;-2.63;92.10;100209.55;1769717;79;21036;-70
2022/01/10 09:08:28;;;;;;;42.23;24.92;;;;;;;-2.59;92.37;100211.30;1797747;78;20932;-70
2022/01/10 09:10:59;;;;;;;44.18;26.75;;;;;;;-2.45;92.54;100215.75;1765215;79;21497;-70
2022/01/10 09:13:42;;;;;;;45.65;26.37;;;;;;;-2.31;92.59;100216.79;1776695;79;22597;-70
2022/01/10 09:16:09;;;;;;;50.78;32.95;;;;;;;-2.24;92.50;100216.04;1771440;79;21556;-69
2022/01/10 09:18:37;;;;;;;45.63;27.50;;;;;;;-2.09;92.51;100225.16;1769366;79;21011;-69
2022/01/10 09:21:12;;;;;;;40.38;25.37;;;;;;;-2.01;92.54;100230.38;1768620;79;21060;-71
2022/01/10 09:23:39;;;;;;;37.90;23.30;;;;;;;-1.91;92.54;100233.47;1779992;79;21131;-70
2022/01/10 09:26:12;;;;;;;41.73;25.68;;;;;;;-1.79;92.42;100241.73;1743284;79;22238;-69
2022/01/10 09:28:43;;;;;;;38.48;23.18;;;;;;;-1.69;92.40;100252.91;1774027;78;21580;-70
2022/01/10 09:31:33;;;;;;;37.40;23.27;;;;;;;-1.60;92.38;100253.89;1792956;78;21669;-71
2022/01/10 09:33:55;;;;;;;37.20;22.17;;;;;;;-1.48;92.33;100256.14;1788453;78;22315;-71
2022/01/10 09:36:28;;;;;;;38.75;22.42;;;;;;;-1.38;92.13;100257.92;1794996;78;20930;-71
2022/01/10 09:38:57;;;;;;;32.73;19.73;;;;;;;-1.32;92.04;100257.98;1791022;78;21061;-71
2022/01/10 09:41:25;;;;;;;31.77;19.67;;;;;;;-1.24;91.89;100265.75;1794920;78;21060;-70
2022/01/10 09:44:02;;;;;;;33.48;22.93;;;;;;;-1.16;91.80;100272.66;1790344;78;21565;-71
2022/01/10 09:46:30;;;;;;;35.35;22.32;;;;;;;-1.19;91.29;100272.63;1795475;78;20947;-71
2022/01/10 09:49:01;;;;;;;37.23;21.82;;;;;;;-1.23;91.17;100277.30;1762875;80;21134;-71
2022/01/10 09:51:30;;;;;;;29.87;18.35;;;;;;;-1.19;91.32;100290.57;1769699;80;21059;-70
2022/01/10 09:53:59;;;;;;;30.80;18.42;;;;;;;-1.17;91.08;100283.77;1776005;79;21032;-70
2022/01/10 09:56:49;;;;;;;26.20;15.32;;;;;;;-1.15;91.35;100294.89;1782516;78;21055;-70
2022/01/10 09:59:16;;;;;;;24.37;14.15;;;;;;;-1.07;91.67;100304.34;1735373;81;20997;-72
2022/01/10 10:01:48;;;;;;;24.25;15.23;;;;;;;-0.94;91.49;100301.05;1721198;81;21113;-72
2022/01/10 10:04:15;;;;;;;23.87;14.83;;;;;;;-0.90;91.41;100301.50;1747780;80;21140;-70
2022/01/10 10:06:42;;;;;;;19.42;13.60;;;;;;;-0.83;91.62;100305.84;1719430;81;21049;-71
2022/01/10 10:09:10;;;;;;;24.30;15.32;;;;;;;-0.76;91.60;100311.44;1745312;80;20972;-71
2022/01/10 10:11:52;;;;;;;24.43;15.18;;;;;;;-0.71;91.57;100309.78;1763110;79;21063;-69
2022/01/10 10:14:22;;;;;;;26.05;15.10;;;;;;;-0.61;91.62;100312.44;1765013;79;21004;-70
2022/01/10 10:17:17;;;;;;;20.95;14.03;;;;;;;-0.56;91.46;100318.44;1737544;81;21646;-70
2022/01/10 10:20:47;;;;;;;21.68;14.05;;;;;;;-0.46;91.30;100330.49;1816186;77;22781;-69
2022/01/10 10:23:17;;;;;;;20.37;13.20;;;;;;;-0.51;91.26;100336.01;1805996;78;23194;-70
2022/01/10 10:25:54;;;;;;;21.00;14.28;;;;;;;-0.48;91.38;100336.91;1811274;78;22423;-70
2022/01/10 10:28:28;;;;;;;;;;;;;;;-0.42;91.38;100341.63;1827245;77;20955;-70
2022/01/10 10:30:59;;;;;;;21.02;13.83;;;;;;;-0.36;91.31;100352.81;1824379;78;20179;-71
2022/01/10 10:33:26;;;;;;;25.88;16.15;;;;;;;-0.34;91.26;100347.25;1817885;78;21056;-70
2022/01/10 10:36:07;;;;;;;23.62;16.02;;;;;;;-0.30;91.22;100355.42;1823450;77;21004;-70
2022/01/10 10:38:32;;;;;;;21.02;14.60;;;;;;;-0.27;91.20;100364.41;1821573;77;21056;-70
2022/01/10 10:41:04;;;;;;;21.63;15.00;;;;;;;-0.28;91.15;100374.26;1814141;78;21004;-71
2022/01/10 10:46:27;;;;;;;18.60;14.03;;;;;;;-0.27;91.20;100381.53;1695830;83;20922;-71
2022/01/10 10:49:00;;;;;;;23.57;14.83;;;;;;;-0.25;91.24;100378.12;1716450;82;21035;-72
2022/01/10 10:51:32;;;;;;;21.52;14.90;;;;;;;-0.25;91.02;100379.41;1713898;82;21082;-72
2022/01/10 10:54:10;;;;;;;25.92;16.37;;;;;;;-0.22;90.70;100383.71;1679051;83;20992;-72
2022/01/10 10:56:40;;;;;;;22.22;15.13;;;;;;;-0.21;90.70;100382.84;1665145;85;20985;-72
2022/01/10 10:59:08;;;;;;;23.77;16.20;;;;;;;-0.17;90.95;100395.27;1712389;82;20985;-70
2022/01/10 11:01:36;;;;;;;25.37;16.55;;;;;;;-0.15;90.67;100394.86;1691678;83;21111;-71
2022/01/10 11:04:05;;;;;;;23.38;14.78;;;;;;;-0.16;90.59;100398.30;1709036;82;21095;-71
2022/01/10 11:06:33;;;;;;;17.70;12.25;;;;;;;-0.16;90.63;100400.86;1698547;82;20940;-71
2022/01/10 11:09:06;;;;;;;19.27;12.45;;;;;;;-0.13;90.50;100403.45;1686149;83;21115;-70
2022/01/10 11:11:40;;;;;;;21.82;13.32;;;;;;;-0.14;90.34;100409.41;1707607;82;20934;-70
2022/01/10 11:14:13;;;;;;;21.10;14.18;;;;;;;-0.17;90.27;100406.82;1702718;83;21111;-73
2022/01/10 11:16:44;;;;;;;20.20;12.73;;;;;;;-0.16;90.18;100414.98;1709165;82;21084;-70
2022/01/10 11:19:13;;;;;;;21.52;13.03;;;;;;;-0.16;90.12;100409.84;1709046;82;21103;-71
2022/01/10 11:21:41;;;;;;;17.80;13.55;;;;;;;-0.15;90.08;100420.53;1709522;82;21067;-71
2022/01/10 11:24:10;;;;;;;17.17;11.78;;;;;;;-0.17;89.99;100422.22;1714352;82;21079;-72
2022/01/10 11:26:40;;;;;;;20.75;12.50;;;;;;;-0.17;89.67;100427.36;1716468;82;21072;-72
2022/01/10 11:29:09;;;;;;;15.48;12.30;;;;;;;-0.21;89.65;100438.45;1719124;82;22227;-72
2022/01/10 11:31:40;;;;;;;19.02;12.43;;;;;;;-0.14;89.60;100429.94;1685537;83;21566;-72
2022/01/10 11:34:10;;;;;;;16.07;11.00;;;;;;;-0.17;89.48;100435.91;1713117;82;21067;-72
2022/01/10 11:36:45;;;;;;;18.82;11.88;;;;;;;-0.15;89.48;100433.37;1666078;83;21180;-73
2022/01/10 11:39:13;;;;;;;15.48;11.38;;;;;;;-0.15;89.25;100444.92;1695163;83;21237;-72